Time;durP1;ratioP1;P1;durP2;ratioP2;P2;SDS_P1;SDS_P2;PMS_P1;PMS_P2;Temp;Humidity;BMP_temperature;BMP_pressure;BME280_temperature;BME280_humidity;BME280_pressure;Samples;Min_cycle;Max_cycle;Signal;HPM_P1;HPM_P2
2024/04/03 00:00:43;;;;;;;2.15;0.20;;;;;;;;;;5013631;28;20065;-80
2024/04/03 00:03:09;;;;;;;0.35;0.30;;;;;;;;;;5009849;28;20026;-80
2024/04/03 00:05:35;;;;;;;0.15;0.15;;;;;;;;;;5026072;28;20564;-80
2024/04/03 00:08:02;;;;;;;0.38;0.20;;;;;;;;;;5029923;28;20037;-79
2024/04/03 00:10:28;;;;;;;0.25;0.15;;;;;;;;;;5032535;28;20068;-80
2024/04/03 00:12:54;;;;;;;0.52;0.30;;;;;;;;;;5026442;28;20464;-80
2024/04/03 00:15:20;;;;;;;0.13;0.10;;;;;;;;;;5013386;28;20040;-81
2024/04/03 00:17:47;;;;;;;0.13;0.00;;;;;;;;;;5031140;28;20037;-80
2024/04/03 00:20:13;;;;;;;0.00;0.00;;;;;;;;;;5013358;28;20504;-78
2024/04/03 00:22:39;;;;;;;0.43;0.25;;;;;;;;;;5041154;28;20044;-77
2024/04/03 00:25:05;;;;;;;0.20;0.10;;;;;;;;;;5019036;28;20181;-78
2024/04/03 00:27:32;;;;;;;0.35;0.20;;;;;;;;;;5033464;28;20028;-78
2024/04/03 00:29:58;;;;;;;0.10;0.10;;;;;;;;;;5011826;28;20029;-78
2024/04/03 00:32:24;;;;;;;0.55;0.20;;;;;;;;;;5039263;28;20109;-79
2024/04/03 00:34:53;;;;;;;0.13;0.13;;;;;;;;;;5031637;28;20013;-80
2024/04/03 00:37:35;;;;;;;0.77;0.10;;;;;;;;;;5030854;28;20010;-83
2024/04/03 00:40:01;;;;;;;0.80;0.30;;;;;;;;;;5032126;28;20022;-78
2024/04/03 00:42:27;;;;;;;0.30;0.20;;;;;;;;;;5034299;28;20017;-79
2024/04/03 00:44:54;;;;;;;0.55;0.20;;;;;;;;;;5038264;28;20116;-77
2024/04/03 00:47:23;;;;;;;0.20;0.20;;;;;;;;;;5045316;28;20017;-77
2024/04/03 00:49:50;;;;;;;0.30;0.20;;;;;;;;;;5038826;28;20029;-81
2024/04/03 00:52:17;;;;;;;0.38;0.28;;;;;;;;;;5037324;28;20097;-80
2024/04/03 00:54:45;;;;;;;0.47;0.20;;;;;;;;;;5035883;28;20064;-79
2024/04/03 00:57:12;;;;;;;0.75;0.32;;;;;;;;;;5035485;28;20022;-79
2024/04/03 00:59:38;;;;;;;1.17;0.40;;;;;;;;;;5018589;28;20037;-80
2024/04/03 01:02:05;;;;;;;0.20;0.20;;;;;;;;;;5037541;28;20033;-80
2024/04/03 01:04:31;;;;;;;0.60;0.30;;;;;;;;;;5016582;28;20184;-79
2024/04/03 01:06:57;;;;;;;0.57;0.35;;;;;;;;;;5025751;28;20021;-79
2024/04/03 01:09:23;;;;;;;0.47;0.40;;;;;;;;;;5044496;28;20001;-79
2024/04/03 01:11:53;;;;;;;0.63;0.20;;;;;;;;;;5037996;28;20026;-79
2024/04/03 01:14:19;;;;;;;0.30;0.25;;;;;;;;;;5040794;28;20479;-81
2024/04/03 01:16:45;;;;;;;0.28;0.28;;;;;;;;;;5019662;28;20026;-81
2024/04/03 01:19:12;;;;;;;0.45;0.30;;;;;;;;;;5036080;28;20081;-80
2024/04/03 01:21:38;;;;;;;0.45;0.20;;;;;;;;;;5020611;28;20025;-79
2024/04/03 01:24:05;;;;;;;0.30;0.20;;;;;;;;;;5024971;28;20076;-78
2024/04/03 01:26:31;;;;;;;0.38;0.30;;;;;;;;;;5049190;28;20045;-80
2024/04/03 01:28:57;;;;;;;0.20;0.20;;;;;;;;;;5030438;28;20026;-80
2024/04/03 01:31:23;;;;;;;0.00;0.00;;;;;;;;;;5044535;28;20021;-79
2024/04/03 01:33:50;;;;;;;0.32;0.10;;;;;;;;;;5023045;28;20034;-79
2024/04/03 01:36:19;;;;;;;0.50;0.28;;;;;;;;;;5040763;28;20445;-80
2024/04/03 01:38:46;;;;;;;0.65;0.40;;;;;;;;;;5022368;28;20030;-80
2024/04/03 01:41:12;;;;;;;0.93;0.38;;;;;;;;;;5011530;28;20117;-81
2024/04/03 01:43:38;;;;;;;0.28;0.20;;;;;;;;;;5038433;28;20081;-81
2024/04/03 01:46:04;;;;;;;0.30;0.20;;;;;;;;;;5023595;28;20407;-79
2024/04/03 01:48:31;;;;;;;0.10;0.10;;;;;;;;;;5022406;28;20060;-77
2024/04/03 01:50:57;;;;;;;0.22;0.20;;;;;;;;;;5029211;28;20033;-78
2024/04/03 01:53:23;;;;;;;0.50;0.30;;;;;;;;;;5041271;28;20105;-78
2024/04/03 01:55:55;;;;;;;0.40;0.15;;;;;;;;;;5051780;28;20089;-79
2024/04/03 01:58:21;;;;;;;0.75;0.43;;;;;;;;;;5038983;28;20097;-78
2024/04/03 02:00:48;;;;;;;0.25;0.20;;;;;;;;;;5042769;28;20052;-78
2024/04/03 02:03:14;;;;;;;0.43;0.22;;;;;;;;;;5041299;28;20045;-79
2024/04/03 02:05:47;;;;;;;0.57;0.35;;;;;;;;;;5023773;28;20018;-80
2024/04/03 02:08:14;;;;;;;0.30;0.30;;;;;;;;;;5041060;28;20025;-80
2024/04/03 02:10:40;;;;;;;0.40;0.20;;;;;;;;;;5023305;28;20017;-80
2024/04/03 02:13:06;;;;;;;0.45;0.30;;;;;;;;;;5024438;28;20048;-79
2024/04/03 02:15:32;;;;;;;0.28;0.22;;;;;;;;;;5053178;28;20072;-78
2024/04/03 02:17:59;;;;;;;0.17;0.15;;;;;;;;;;5056407;28;20052;-77
2024/04/03 02:20:25;;;;;;;0.10;0.10;;;;;;;;;;5056676;28;20018;-76
2024/04/03 02:22:51;;;;;;;0.20;0.20;;;;;;;;;;5056715;28;20033;-78
2024/04/03 02:25:18;;;;;;;0.25;0.20;;;;;;;;;;5017552;28;20106;-79
2024/04/03 02:27:44;;;;;;;0.47;0.30;;;;;;;;;;5039339;28;20088;-79
2024/04/03 02:30:11;;;;;;;0.10;0.10;;;;;;;;;;5037097;28;20029;-80
2024/04/03 02:32:37;;;;;;;0.30;0.30;;;;;;;;;;5021422;28;20064;-78
2024/04/03 02:35:04;;;;;;;0.52;0.40;;;;;;;;;;5020282;28;20051;-78
2024/04/03 02:37:30;;;;;;;0.40;0.25;;;;;;;;;;5037221;28;20033;-79
2024/04/03 02:39:56;;;;;;;1.15;0.20;;;;;;;;;;5030109;28;20056;-80
2024/04/03 02:42:24;;;;;;;0.30;0.20;;;;;;;;;;5038598;28;20021;-79
2024/04/03 02:44:50;;;;;;;0.32;0.32;;;;;;;;;;5020283;28;20093;-78
2024/04/03 02:47:16;;;;;;;0.38;0.20;;;;;;;;;;5031177;28;20026;-80
2024/04/03 02:49:43;;;;;;;0.28;0.10;;;;;;;;;;5051071;28;20021;-77
2024/04/03 02:52:09;;;;;;;0.10;0.10;;;;;;;;;;5031105;28;20110;-79
2024/04/03 02:54:35;;;;;;;0.20;0.20;;;;;;;;;;5034027;28;20026;-80
2024/04/03 02:57:01;;;;;;;0.50;0.20;;;;;;;;;;5033818;28;20089;-83
2024/04/03 02:59:27;;;;;;;0.35;0.35;;;;;;;;;;5037070;28;20034;-82
2024/04/03 03:01:54;;;;;;;0.52;0.52;;;;;;;;;;5014024;28;20041;-84
2024/04/03 03:04:25;;;;;;;0.40;0.40;;;;;;;;;;5011143;28;20543;-82
2024/04/03 03:06:51;;;;;;;0.65;0.50;;;;;;;;;;5042469;28;20025;-80
2024/04/03 03:09:18;;;;;;;0.68;0.47;;;;;;;;;;5033170;28;20037;-83
2024/04/03 03:11:44;;;;;;;2.15;0.30;;;;;;;;;;5032727;28;20017;-83
2024/04/03 03:14:11;;;;;;;0.65;0.20;;;;;;;;;;5014901;28;20105;-84
2024/04/03 03:16:37;;;;;;;0.65;0.32;;;;;;;;;;5009558;28;20136;-83
2024/04/03 03:19:03;;;;;;;1.33;0.30;;;;;;;;;;5017524;28;20085;-82
2024/04/03 03:21:29;;;;;;;0.40;0.40;;;;;;;;;;5031397;28;20022;-82
2024/04/03 03:23:55;;;;;;;0.40;0.30;;;;;;;;;;5025314;28;20032;-81
2024/04/03 03:26:21;;;;;;;0.20;0.17;;;;;;;;;;5026829;28;20096;-83
2024/04/03 03:28:48;;;;;;;0.45;0.30;;;;;;;;;;5013952;28;20093;-83
2024/04/03 03:31:14;;;;;;;0.38;0.20;;;;;;;;;;5012146;28;20100;-82
2024/04/03 03:33:41;;;;;;;0.30;0.20;;;;;;;;;;5012590;28;20381;-82
2024/04/03 03:36:07;;;;;;;0.30;0.10;;;;;;;;;;5043187;28;20500;-82
2024/04/03 03:38:33;;;;;;;0.30;0.10;;;;;;;;;;5018382;28;20097;-82
2024/04/03 03:41:03;;;;;;;0.73;0.40;;;;;;;;;;5048460;28;20018;-83
2024/04/03 03:43:29;;;;;;;0.28;0.10;;;;;;;;;;5019818;28;20022;-83
2024/04/03 03:45:55;;;;;;;0.10;0.10;;;;;;;;;;5030326;28;20041;-82
2024/04/03 03:52:36;;;;;;;0.10;0.00;;;;;;;;;;5027393;28;20056;-82
2024/04/03 03:53:57;;;;;;;0.10;0.10;;;;;;;;;;5034903;28;20412;-83
2024/04/03 03:56:23;;;;;;;0.20;0.20;;;;;;;;;;5039975;28;20028;-83
2024/04/03 03:58:49;;;;;;;0.10;0.10;;;;;;;;;;5023499;28;20037;-80
2024/04/03 04:01:16;;;;;;;0.38;0.20;;;;;;;;;;5039482;28;20064;-80
2024/04/03 04:03:42;;;;;;;0.10;0.10;;;;;;;;;;5018652;28;20045;-82
2024/04/03 04:06:08;;;;;;;0.17;0.10;;;;;;;;;;5021980;28;20093;-82
2024/04/03 04:08:34;;;;;;;0.80;0.20;;;;;;;;;;5036381;28;20030;-83
2024/04/03 04:11:00;;;;;;;0.40;0.20;;;;;;;;;;5025493;28;20116;-83
2024/04/03 04:13:27;;;;;;;0.30;0.10;;;;;;;;;;5014480;28;20163;-82
2024/04/03 04:15:53;;;;;;;0.10;0.10;;;;;;;;;;5043075;28;20045;-81
2024/04/03 04:18:19;;;;;;;0.20;0.20;;;;;;;;;;5043359;28;20116;-82
2024/04/03 04:20:56;;;;;;;0.30;0.00;;;;;;;;;;5036807;28;20064;-83
2024/04/03 04:23:25;;;;;;;0.20;0.10;;;;;;;;;;5022941;28;20492;-80
2024/04/03 04:25:56;;;;;;;0.38;0.30;;;;;;;;;;5037974;28;20132;-79
2024/04/03 04:28:23;;;;;;;0.70;0.20;;;;;;;;;;5047738;28;20013;-80
2024/04/03 04:30:56;;;;;;;0.20;0.20;;;;;;;;;;5042312;28;20028;-80
2024/04/03 04:33:22;;;;;;;0.20;0.20;;;;;;;;;;5021695;28;20087;-80
2024/04/03 04:35:54;;;;;;;0.00;0.00;;;;;;;;;;5020232;28;20449;-80
2024/04/03 04:38:21;;;;;;;0.20;0.10;;;;;;;;;;5038373;28;20038;-80
2024/04/03 04:40:57;;;;;;;0.10;0.10;;;;;;;;;;5035403;28;20060;-80
2024/04/03 04:43:24;;;;;;;0.10;0.10;;;;;;;;;;5042393;28;20026;-80
2024/04/03 04:45:59;;;;;;;0.10;0.10;;;;;;;;;;5036317;28;20075;-79
2024/04/03 04:48:26;;;;;;;0.32;0.10;;;;;;;;;;5022645;28;20411;-80
2024/04/03 04:50:56;;;;;;;0.45;0.13;;;;;;;;;;5038206;28;20022;-80
2024/04/03 04:53:22;;;;;;;0.13;0.10;;;;;;;;;;5041509;28;20091;-79
2024/04/03 04:55:55;;;;;;;0.10;0.00;;;;;;;;;;5022009;28;20036;-80
2024/04/03 04:58:22;;;;;;;0.35;0.10;;;;;;;;;;5022864;28;20021;-80
2024/04/03 05:00:49;;;;;;;0.32;0.30;;;;;;;;;;5042660;28;20032;-79
2024/04/03 05:03:16;;;;;;;0.10;0.10;;;;;;;;;;5041874;28;20034;-79
2024/04/03 05:05:42;;;;;;;0.20;0.15;;;;;;;;;;5015811;28;20055;-78
2024/04/03 05:08:10;;;;;;;0.30;0.20;;;;;;;;;;5041847;28;20026;-79
2024/04/03 05:10:36;;;;;;;0.00;0.00;;;;;;;;;;5040993;28;20022;-79
2024/04/03 05:13:02;;;;;;;0.20;0.20;;;;;;;;;;5043684;28;20033;-79
2024/04/03 05:15:29;;;;;;;0.55;0.10;;;;;;;;;;5038580;28;20100;-80
2024/04/03 05:17:55;;;;;;;0.30;0.20;;;;;;;;;;5017820;28;20079;-79
2024/04/03 05:20:22;;;;;;;0.20;0.20;;;;;;;;;;5021614;28;20038;-78
2024/04/03 05:22:48;;;;;;;0.10;0.10;;;;;;;;;;5051485;28;20025;-79
2024/04/03 05:25:14;;;;;;;0.40;0.10;;;;;;;;;;5022866;28;20026;-78
2024/04/03 05:27:40;;;;;;;0.20;0.20;;;;;;;;;;5039308;28;20483;-81
2024/04/03 05:30:07;;;;;;;1.48;0.20;;;;;;;;;;5037400;28;20104;-81
2024/04/03 05:32:33;;;;;;;0.10;0.10;;;;;;;;;;5045384;28;20469;-80
2024/04/03 05:34:59;;;;;;;0.10;0.10;;;;;;;;;;5035634;28;20472;-81
2024/04/03 05:37:25;;;;;;;0.55;0.10;;;;;;;;;;5019817;28;20064;-81
2024/04/03 05:39:55;;;;;;;0.10;0.10;;;;;;;;;;5026913;28;20077;-81
2024/04/03 05:42:21;;;;;;;0.45;0.20;;;;;;;;;;5026944;28;20037;-79
2024/04/03 05:44:47;;;;;;;1.95;0.20;;;;;;;;;;5027653;28;20041;-81
2024/04/03 05:47:55;;;;;;;0.25;0.20;;;;;;;;;;5050098;28;20018;-80
2024/04/03 05:50:21;;;;;;;0.57;0.30;;;;;;;;;;5109142;23;21114;-81
2024/04/03 05:52:47;;;;;;;0.55;0.30;;;;;;;;;;5051759;28;20025;-80
2024/04/03 05:55:14;;;;;;;0.55;0.40;;;;;;;;;;5049799;28;20086;-80
2024/04/03 05:57:40;;;;;;;0.38;0.30;;;;;;;;;;5053227;28;20025;-80
2024/04/03 06:00:08;;;;;;;0.82;0.45;;;;;;;;;;5061551;28;20025;-82
2024/04/03 06:02:34;;;;;;;1.10;0.70;;;;;;;;;;5060655;28;20063;-80
2024/04/03 06:05:00;;;;;;;0.32;0.20;;;;;;;;;;5051112;28;20032;-79
2024/04/03 06:07:26;;;;;;;0.32;0.20;;;;;;;;;;5057451;28;20096;-79
2024/04/03 06:09:52;;;;;;;0.10;0.10;;;;;;;;;;5068625;28;20188;-79
2024/04/03 06:12:47;;;;;;;0.10;0.10;;;;;;;;;;5059492;28;20044;-81
2024/04/03 06:15:19;;;;;;;0.50;0.20;;;;;;;;;;5030762;28;20024;-82
2024/04/03 06:17:54;;;;;;;0.32;0.30;;;;;;;;;;5070106;28;20005;-82
2024/04/03 06:20:20;;;;;;;0.22;0.10;;;;;;;;;;5058115;28;20036;-80
2024/04/03 06:22:48;;;;;;;0.20;0.20;;;;;;;;;;5047572;28;20441;-81
2024/04/03 06:25:14;;;;;;;0.20;0.20;;;;;;;;;;5051065;28;20098;-79
2024/04/03 06:27:45;;;;;;;0.10;0.05;;;;;;;;;;5076775;28;20021;-80
2024/04/03 06:30:11;;;;;;;0.35;0.32;;;;;;;;;;5075777;28;20005;-80
2024/04/03 06:32:37;;;;;;;0.38;0.38;;;;;;;;;;5054914;28;20029;-80
2024/04/03 06:35:04;;;;;;;0.28;0.28;;;;;;;;;;5033199;28;20025;-80
2024/04/03 06:37:31;;;;;;;0.30;0.30;;;;;;;;;;5049998;28;20439;-82
2024/04/03 06:39:57;;;;;;;0.70;0.40;;;;;;;;;;5049549;28;20119;-81
2024/04/03 06:42:23;;;;;;;0.30;0.20;;;;;;;;;;5054158;28;20010;-81
2024/04/03 06:44:50;;;;;;;1.05;0.38;;;;;;;;;;5070738;28;20217;-79
2024/04/03 06:47:17;;;;;;;0.30;0.30;;;;;;;;;;5062745;28;20025;-79
2024/04/03 06:49:43;;;;;;;0.20;0.20;;;;;;;;;;5065262;28;20032;-79
2024/04/03 06:52:09;;;;;;;0.15;0.10;;;;;;;;;;5045296;28;20072;-79
2024/04/03 06:54:35;;;;;;;1.08;1.02;;;;;;;;;;5050982;28;20021;-80
2024/04/03 06:57:02;;;;;;;0.30;0.20;;;;;;;;;;5059073;28;20013;-80
2024/04/03 06:59:30;;;;;;;0.43;0.20;;;;;;;;;;5059513;28;20013;-81
2024/04/03 07:01:57;;;;;;;0.22;0.20;;;;;;;;;;5056209;28;20074;-81
2024/04/03 07:04:23;;;;;;;0.47;0.15;;;;;;;;;;5045934;28;20030;-80
2024/04/03 07:06:49;;;;;;;0.10;0.10;;;;;;;;;;5059390;28;20024;-81
2024/04/03 07:09:16;;;;;;;0.10;0.10;;;;;;;;;;5048314;28;20028;-80
2024/04/03 07:11:42;;;;;;;0.55;0.20;;;;;;;;;;5048306;28;20025;-80
2024/04/03 07:14:11;;;;;;;0.40;0.30;;;;;;;;;;5048410;28;20036;-80
2024/04/03 07:16:37;;;;;;;0.55;0.15;;;;;;;;;;5045432;28;20030;-81
2024/04/03 07:19:03;;;;;;;0.10;0.10;;;;;;;;;;5052973;28;20044;-82
2024/04/03 07:21:29;;;;;;;0.20;0.20;;;;;;;;;;5044761;28;20025;-82
2024/04/03 07:23:56;;;;;;;0.20;0.20;;;;;;;;;;5054734;28;20032;-80
2024/04/03 07:26:23;;;;;;;0.15;0.15;;;;;;;;;;5061137;28;20074;-80
2024/04/03 07:28:49;;;;;;;0.22;0.20;;;;;;;;;;5056435;28;20014;-81
2024/04/03 07:31:16;;;;;;;0.98;0.30;;;;;;;;;;5043457;28;20037;-81
2024/04/03 07:33:42;;;;;;;1.23;0.22;;;;;;;;;;5055813;28;20044;-78
2024/04/03 07:36:08;;;;;;;0.25;0.20;;;;;;;;;;5045704;28;20052;-80
2024/04/03 07:38:34;;;;;;;0.17;0.13;;;;;;;;;;5054741;28;20097;-80
2024/04/03 07:41:01;;;;;;;0.35;0.25;;;;;;;;;;5057092;28;20028;-80
2024/04/03 07:43:27;;;;;;;0.75;0.40;;;;;;;;;;5053538;28;20053;-79
2024/04/03 07:45:57;;;;;;;0.20;0.20;;;;;;;;;;5046582;28;20531;-80
2024/04/03 07:48:23;;;;;;;0.20;0.13;;;;;;;;;;5051476;28;20452;-80
2024/04/03 07:50:59;;;;;;;0.28;0.22;;;;;;;;;;5045211;28;20461;-80
2024/04/03 07:53:25;;;;;;;0.20;0.20;;;;;;;;;;5036680;28;20021;-80
2024/04/03 07:55:51;;;;;;;0.20;0.20;;;;;;;;;;5040125;28;20029;-80
2024/04/03 07:58:17;;;;;;;0.20;0.13;;;;;;;;;;5056141;28;20025;-81
2024/04/03 08:00:44;;;;;;;0.25;0.17;;;;;;;;;;5044117;28;20440;-81
2024/04/03 08:03:10;;;;;;;0.13;0.13;;;;;;;;;;5045700;28;20025;-80
2024/04/03 08:05:37;;;;;;;0.10;0.10;;;;;;;;;;5049771;28;20060;-80
2024/04/03 08:08:03;;;;;;;0.20;0.20;;;;;;;;;;5059075;28;20032;-80
2024/04/03 08:10:29;;;;;;;0.10;0.10;;;;;;;;;;5063200;28;20068;-81
2024/04/03 08:12:55;;;;;;;0.10;0.10;;;;;;;;;;5050222;28;20181;-80
2024/04/03 08:15:22;;;;;;;0.38;0.20;;;;;;;;;;5041224;28;20059;-79
2024/04/03 08:17:48;;;;;;;0.30;0.20;;;;;;;;;;5044031;28;20090;-80
2024/04/03 08:20:14;;;;;;;0.35;0.25;;;;;;;;;;5054471;28;20075;-81
2024/04/03 08:22:40;;;;;;;0.30;0.30;;;;;;;;;;5048448;28;20044;-81
2024/04/03 08:25:07;;;;;;;0.30;0.30;;;;;;;;;;5059181;28;20024;-81
2024/04/03 08:27:33;;;;;;;0.55;0.28;;;;;;;;;;5052218;28;20036;-80
2024/04/03 08:30:01;;;;;;;0.20;0.20;;;;;;;;;;5051635;28;20017;-81
2024/04/03 08:32:27;;;;;;;0.20;0.10;;;;;;;;;;5057668;28;20024;-81
2024/04/03 08:34:53;;;;;;;0.20;0.20;;;;;;;;;;5042527;28;20022;-80
2024/04/03 08:37:20;;;;;;;0.13;0.13;;;;;;;;;;5042357;28;20025;-80
2024/04/03 08:39:46;;;;;;;0.20;0.20;;;;;;;;;;5041822;28;20479;-81
2024/04/03 08:42:12;;;;;;;1.33;0.50;;;;;;;;;;5040215;28;20534;-79
2024/04/03 08:44:39;;;;;;;0.40;0.32;;;;;;;;;;5042371;28;20041;-80
2024/04/03 08:47:06;;;;;;;0.20;0.20;;;;;;;;;;5054703;28;20017;-79
2024/04/03 08:49:33;;;;;;;1.23;0.45;;;;;;;;;;5064907;28;20040;-80
2024/04/03 08:52:12;;;;;;;0.75;0.60;;;;;;;;;;5057063;28;20029;-82
2024/04/03 08:54:42;;;;;;;0.20;0.20;;;;;;;;;;5042405;28;20025;-81
2024/04/03 08:57:09;;;;;;;0.35;0.30;;;;;;;;;;5059574;28;20464;-81
2024/04/03 08:59:39;;;;;;;0.32;0.30;;;;;;;;;;5041367;28;20017;-81
2024/04/03 09:02:05;;;;;;;0.52;0.30;;;;;;;;;;5067315;28;20013;-80
2024/04/03 09:04:32;;;;;;;0.60;0.40;;;;;;;;;;5058117;28;20017;-80
2024/04/03 09:06:59;;;;;;;0.52;0.40;;;;;;;;;;5059097;28;20019;-79
2024/04/03 09:09:29;;;;;;;0.30;0.30;;;;;;;;;;5064412;28;20017;-80
2024/04/03 09:12:05;;;;;;;0.40;0.25;;;;;;;;;;5060391;28;20021;-79
2024/04/03 09:14:33;;;;;;;0.50;0.38;;;;;;;;;;5064417;28;20037;-80
2024/04/03 09:17:06;;;;;;;1.20;0.40;;;;;;;;;;5062165;28;20021;-80
2024/04/03 09:19:33;;;;;;;0.40;0.32;;;;;;;;;;5033696;28;20064;-83
2024/04/03 09:21:59;;;;;;;0.32;0.20;;;;;;;;;;5027828;28;20475;-80
2024/04/03 09:24:26;;;;;;;0.20;0.20;;;;;;;;;;5055470;28;20040;-80
2024/04/03 09:26:56;;;;;;;0.20;0.20;;;;;;;;;;5064977;28;20033;-80
2024/04/03 09:29:23;;;;;;;0.20;0.20;;;;;;;;;;5058072;28;20044;-80
2024/04/03 09:31:50;;;;;;;0.30;0.30;;;;;;;;;;5060787;28;20091;-84
2024/04/03 09:34:16;;;;;;;0.43;0.30;;;;;;;;;;5053221;28;20026;-81
2024/04/03 09:36:43;;;;;;;0.17;0.17;;;;;;;;;;5065263;28;20057;-81
2024/04/03 09:39:09;;;;;;;0.20;0.20;;;;;;;;;;5054671;28;20024;-81
2024/04/03 09:41:36;;;;;;;0.57;0.28;;;;;;;;;;5050899;28;20140;-81
2024/04/03 09:44:08;;;;;;;0.20;0.20;;;;;;;;;;5043888;28;20524;-79
2024/04/03 09:46:59;;;;;;;0.40;0.38;;;;;;;;;;5058842;28;20017;-80
2024/04/03 09:49:30;;;;;;;0.35;0.35;;;;;;;;;;5032995;28;20113;-82
2024/04/03 09:51:56;;;;;;;0.30;0.30;;;;;;;;;;5042536;28;20059;-81
2024/04/03 09:54:25;;;;;;;0.30;0.30;;;;;;;;;;5051260;28;20551;-81
2024/04/03 09:56:51;;;;;;;0.30;0.30;;;;;;;;;;5056985;28;20013;-79
2024/04/03 09:59:18;;;;;;;0.30;0.30;;;;;;;;;;5051304;28;20116;-81
2024/04/03 10:01:46;;;;;;;1.33;0.60;;;;;;;;;;5054927;28;20094;-80
2024/04/03 10:04:13;;;;;;;0.30;0.30;;;;;;;;;;5055228;28;20071;-82
2024/04/03 10:06:41;;;;;;;0.38;0.38;;;;;;;;;;5056766;28;20045;-81
2024/04/03 10:09:37;;;;;;;0.20;0.20;;;;;;;;;;5057729;28;20077;-80
2024/04/03 10:12:06;;;;;;;0.73;0.40;;;;;;;;;;5047509;28;20057;-81
2024/04/03 10:14:36;;;;;;;0.90;0.40;;;;;;;;;;5051300;28;20153;-82
2024/04/03 10:17:13;;;;;;;0.43;0.40;;;;;;;;;;5060506;28;20033;-82
2024/04/03 10:19:42;;;;;;;0.43;0.43;;;;;;;;;;5062694;28;20033;-81
2024/04/03 10:22:08;;;;;;;1.13;0.40;;;;;;;;;;5063069;28;20029;-82
2024/04/03 10:24:34;;;;;;;0.40;0.40;;;;;;;;;;5053603;28;20343;-82
2024/04/03 10:27:00;;;;;;;1.60;0.30;;;;;;;;;;5057919;28;20029;-82
2024/04/03 10:29:26;;;;;;;1.25;0.50;;;;;;;;;;5052618;28;20052;-81
2024/04/03 10:31:52;;;;;;;0.60;0.50;;;;;;;;;;5054396;28;20029;-81
2024/04/03 10:34:19;;;;;;;0.38;0.32;;;;;;;;;;5056217;28;20025;-81
2024/04/03 10:36:45;;;;;;;0.40;0.40;;;;;;;;;;5063719;28;20375;-82
2024/04/03 10:39:11;;;;;;;1.10;0.50;;;;;;;;;;5054668;28;20124;-83
2024/04/03 10:41:37;;;;;;;0.98;0.40;;;;;;;;;;5058934;28;20089;-80
2024/04/03 10:44:04;;;;;;;1.05;0.30;;;;;;;;;;5057363;28;20057;-80
2024/04/03 10:46:30;;;;;;;1.00;0.40;;;;;;;;;;5047829;28;20033;-81
2024/04/03 10:48:56;;;;;;;1.88;0.50;;;;;;;;;;5057506;28;20100;-82
2024/04/03 10:51:22;;;;;;;0.60;0.38;;;;;;;;;;5056958;28;20041;-81
2024/04/03 10:53:49;;;;;;;1.58;0.55;;;;;;;;;;5048257;28;20145;-82
2024/04/03 10:56:16;;;;;;;0.43;0.30;;;;;;;;;;5050898;28;20027;-82
2024/04/03 10:58:46;;;;;;;0.50;0.50;;;;;;;;;;5054013;28;20471;-82
2024/04/03 11:01:15;;;;;;;1.10;0.43;;;;;;;;;;5046620;28;20052;-82
2024/04/03 11:03:45;;;;;;;1.65;0.50;;;;;;;;;;5051626;28;20040;-81
2024/04/03 11:06:12;;;;;;;1.00;0.52;;;;;;;;;;5051334;28;20036;-82
2024/04/03 11:08:40;;;;;;;1.75;0.63;;;;;;;;;;5034501;28;20054;-82
2024/04/03 11:11:09;;;;;;;0.60;0.30;;;;;;;;;;5049234;28;20037;-81
2024/04/03 11:13:36;;;;;;;0.88;0.40;;;;;;;;;;5052710;28;20028;-80
2024/04/03 11:16:07;;;;;;;0.85;0.40;;;;;;;;;;5058020;28;20448;-81
2024/04/03 11:18:33;;;;;;;1.08;0.20;;;;;;;;;;5059106;28;20073;-81
2024/04/03 11:21:05;;;;;;;3.38;0.60;;;;;;;;;;5041907;28;20010;-81
2024/04/03 11:23:31;;;;;;;1.95;0.40;;;;;;;;;;5033313;28;20049;-80
2024/04/03 11:25:58;;;;;;;0.35;0.35;;;;;;;;;;5050808;28;20095;-80
2024/04/03 11:28:24;;;;;;;0.30;0.30;;;;;;;;;;5063553;28;20037;-79
2024/04/03 11:30:50;;;;;;;2.33;0.70;;;;;;;;;;5066278;28;20495;-81
2024/04/03 11:33:16;;;;;;;1.17;0.52;;;;;;;;;;5065898;28;20036;-82
2024/04/03 11:35:42;;;;;;;0.30;0.30;;;;;;;;;;5055976;28;20075;-81
2024/04/03 11:38:09;;;;;;;1.02;0.40;;;;;;;;;;5043123;28;20052;-81
2024/04/03 11:40:35;;;;;;;0.38;0.32;;;;;;;;;;5051688;28;20021;-81
2024/04/03 11:43:01;;;;;;;0.75;0.40;;;;;;;;;;5050928;28;20026;-80
2024/04/03 11:45:27;;;;;;;3.53;0.52;;;;;;;;;;5039340;28;20043;-80
2024/04/03 11:47:54;;;;;;;1.95;0.30;;;;;;;;;;5041905;28;20017;-82
2024/04/03 11:50:20;;;;;;;1.48;0.30;;;;;;;;;;5054310;28;20052;-81
2024/04/03 11:52:46;;;;;;;0.85;0.30;;;;;;;;;;5056139;23;20050;-81
2024/04/03 11:55:12;;;;;;;0.70;0.40;;;;;;;;;;5021221;28;20088;-80
2024/04/03 11:57:38;;;;;;;0.28;0.28;;;;;;;;;;5018408;28;20416;-80
2024/04/03 12:00:05;;;;;;;1.33;0.35;;;;;;;;;;5017744;28;20022;-80
2024/04/03 12:02:31;;;;;;;0.52;0.30;;;;;;;;;;5018653;28;20026;-80
2024/04/03 12:04:57;;;;;;;0.20;0.20;;;;;;;;;;5035393;28;20062;-80
2024/04/03 12:07:23;;;;;;;0.38;0.38;;;;;;;;;;4994427;28;20057;-80
2024/04/03 12:09:49;;;;;;;0.40;0.40;;;;;;;;;;5008749;28;20365;-80
2024/04/03 12:12:15;;;;;;;0.30;0.30;;;;;;;;;;5018142;28;20025;-79
2024/04/03 12:14:43;;;;;;;0.32;0.30;;;;;;;;;;4991536;28;20026;-80
2024/04/03 12:17:09;;;;;;;0.28;0.20;;;;;;;;;;5003449;28;20082;-80
2024/04/03 12:19:52;;;;;;;0.60;0.30;;;;;;;;;;5009739;28;20027;-80
2024/04/03 12:22:19;;;;;;;0.65;0.43;;;;;;;;;;4999850;28;20026;-79
2024/04/03 12:24:45;;;;;;;0.85;0.40;;;;;;;;;;5006427;28;20026;-81
2024/04/03 12:27:12;;;;;;;0.40;0.40;;;;;;;;;;4987882;28;20061;-81
2024/04/03 12:29:38;;;;;;;0.52;0.28;;;;;;;;;;5009420;28;20033;-80
2024/04/03 12:32:05;;;;;;;0.52;0.30;;;;;;;;;;5014082;28;20014;-80
2024/04/03 12:34:31;;;;;;;1.50;0.60;;;;;;;;;;4983986;28;20041;-81
2024/04/03 12:36:57;;;;;;;1.35;0.75;;;;;;;;;;5005608;28;20156;-79
2024/04/03 12:39:23;;;;;;;1.85;0.50;;;;;;;;;;5013829;28;20019;-79
2024/04/03 12:41:49;;;;;;;2.90;0.52;;;;;;;;;;5002354;28;20366;-80
2024/04/03 12:44:15;;;;;;;2.92;0.45;;;;;;;;;;5012242;28;20070;-80
2024/04/03 12:46:42;;;;;;;0.50;0.50;;;;;;;;;;5018737;28;20022;-80
2024/04/03 12:49:08;;;;;;;2.15;0.60;;;;;;;;;;5023305;28;20101;-80
2024/04/03 12:51:34;;;;;;;0.68;0.35;;;;;;;;;;5021209;28;20029;-80
2024/04/03 12:54:00;;;;;;;0.80;0.40;;;;;;;;;;5022661;28;20492;-80
2024/04/03 12:56:27;;;;;;;1.13;0.55;;;;;;;;;;5015158;28;20476;-80
2024/04/03 12:58:55;;;;;;;0.32;0.32;;;;;;;;;;5023953;28;20028;-80
2024/04/03 13:01:21;;;;;;;0.55;0.30;;;;;;;;;;5023145;28;20181;-80
2024/04/03 13:03:47;;;;;;;0.90;0.47;;;;;;;;;;5013444;28;20034;-80
2024/04/03 13:06:13;;;;;;;0.43;0.43;;;;;;;;;;5025435;28;20015;-79
2024/04/03 13:08:39;;;;;;;0.30;0.30;;;;;;;;;;5004199;28;20033;-80
2024/04/03 13:11:06;;;;;;;0.30;0.30;;;;;;;;;;5015302;28;20022;-80
2024/04/03 13:13:36;;;;;;;2.33;0.50;;;;;;;;;;5024932;28;20018;-81
2024/04/03 13:16:02;;;;;;;2.75;0.40;;;;;;;;;;5017966;28;20078;-81
2024/04/03 13:18:28;;;;;;;0.77;0.40;;;;;;;;;;4986285;28;20101;-79
2024/04/03 13:20:56;;;;;;;0.40;0.30;;;;;;;;;;5010802;28;20030;-80
2024/04/03 13:23:22;;;;;;;0.65;0.30;;;;;;;;;;5022266;28;20018;-81
2024/04/03 13:25:48;;;;;;;0.30;0.30;;;;;;;;;;5028505;28;20049;-81
2024/04/03 13:28:15;;;;;;;1.35;0.60;;;;;;;;;;5035365;28;20023;-81
2024/04/03 13:30:44;;;;;;;1.15;0.32;;;;;;;;;;5022558;28;20018;-82
2024/04/03 13:33:10;;;;;;;0.45;0.30;;;;;;;;;;5031093;28;20022;-81
2024/04/03 13:35:37;;;;;;;0.25;0.25;;;;;;;;;;5011213;28;20102;-79
2024/04/03 13:38:04;;;;;;;0.30;0.30;;;;;;;;;;5013538;28;20404;-80
2024/04/03 13:40:30;;;;;;;0.20;0.20;;;;;;;;;;5004435;28;20080;-80
2024/04/03 13:42:56;;;;;;;0.17;0.17;;;;;;;;;;5010035;28;20025;-79
2024/04/03 13:45:23;;;;;;;1.92;0.40;;;;;;;;;;4992192;28;20400;-81
2024/04/03 13:47:49;;;;;;;0.50;0.50;;;;;;;;;;5011657;28;20109;-80
2024/04/03 13:50:17;;;;;;;1.27;0.73;;;;;;;;;;5023605;28;20014;-81
2024/04/03 13:52:43;;;;;;;0.38;0.38;;;;;;;;;;5026922;28;20018;-81
2024/04/03 13:55:09;;;;;;;2.25;0.40;;;;;;;;;;5016379;28;20057;-79
2024/04/03 13:57:36;;;;;;;1.40;0.57;;;;;;;;;;5012347;28;20085;-80
2024/04/03 14:00:02;;;;;;;0.95;0.38;;;;;;;;;;5008231;28;20035;-79
2024/04/03 14:02:28;;;;;;;0.93;0.32;;;;;;;;;;5016056;28;20104;-80
2024/04/03 14:04:54;;;;;;;0.30;0.30;;;;;;;;;;5001837;28;20465;-80
2024/04/03 14:07:20;;;;;;;0.40;0.40;;;;;;;;;;5013650;28;20108;-80
2024/04/03 14:09:46;;;;;;;0.85;0.55;;;;;;;;;;5009109;28;20441;-78
2024/04/03 14:12:12;;;;;;;0.40;0.40;;;;;;;;;;4988288;28;20025;-80
2024/04/03 14:14:39;;;;;;;0.88;0.50;;;;;;;;;;4992714;28;20049;-79
2024/04/03 14:17:05;;;;;;;2.78;0.60;;;;;;;;;;5004038;28;20022;-80
2024/04/03 14:19:32;;;;;;;2.42;0.80;;;;;;;;;;5020643;28;20029;-80
2024/04/03 14:21:58;;;;;;;0.40;0.35;;;;;;;;;;4998242;28;20026;-79
2024/04/03 14:24:25;;;;;;;1.30;0.40;;;;;;;;;;4998597;28;20065;-79
2024/04/03 14:26:51;;;;;;;0.75;0.68;;;;;;;;;;4982674;28;20439;-80
2024/04/03 14:29:17;;;;;;;1.20;0.52;;;;;;;;;;5015466;28;20081;-81
2024/04/03 14:31:43;;;;;;;0.60;0.60;;;;;;;;;;5000714;28;20085;-79
2024/04/03 14:34:10;;;;;;;0.52;0.50;;;;;;;;;;5011225;28;20076;-79
2024/04/03 14:36:36;;;;;;;0.30;0.30;;;;;;;;;;4980883;28;20031;-80
2024/04/03 14:39:03;;;;;;;0.30;0.30;;;;;;;;;;5016482;28;20018;-78
2024/04/03 14:41:29;;;;;;;0.55;0.50;;;;;;;;;;5011118;28;20022;-79
2024/04/03 14:43:55;;;;;;;0.47;0.40;;;;;;;;;;4999801;28;20022;-80
2024/04/03 14:46:22;;;;;;;0.47;0.40;;;;;;;;;;5020651;28;20022;-79